Matagami Airport
CYNM : now visible

Airfield :











YOU CAN JOIN US ON...

 
LOGIN :

Register | Disclaimer

   EN    FR    IT 

 









Legend :    VFR   Marginal VFR   IFR   Intensive IFR   Very Intensive IFR
Visi :
Ceiling :
>= 8 km
>= 3000ft
5 to 8 km
1000 to 3000 ft
1500m to 5 km
500 to 1000 ft
800 to 1500m
200 to 500 ft
< 800m
< 200 ft
Symbols :   Thunderstorms  Fog  Heavy snow  Heavy precipitations  Wind > 20 kt







- Airport Elevation : 918 ft
- IATA code : YNM


CYNM - Matagami

CURRENT METAR :
  • 222300Z AUTO 33015G20KT 9SM SCT022 14/09 A2997 RMK SLP156

EXPIRED METARs :
  • 222254Z AUTO 32014KT 9SM SCT024 14/09 A2997 RMK SLP156
  • 222224Z AUTO 32014G20KT 9SM BKN024 15/10 A2996 RMK SLP153 DENSITY ALT 1000FT
  • 222200Z AUTO 32014G20KT 9SM BKN026 15/10 A2995 RMK SLP150 DENSITY ALT 1000FT
  • 222158Z AUTO 32012G20KT 9SM BKN026 15/10 A2995 RMK SLP151 DENSITY ALT 1000FT
  • 222101Z AUTO 31015G21KT 9SM BKN024 16/10 A2993 RMK SLP143 DENSITY ALT 1200FT
  • 222054Z AUTO 31014G21KT 9SM SCT024 16/10 A2993 RMK SLP142 DENSITY ALT 1200FT

TAF N/A
No reported NOTAMs for that airfield.



MET'MAP, your aeronautical weather chart ! - Copyright ORBIFLY December 2007 - Disclaimer

ORBIFLY MET'MAP TEAM :

Programming & Development : Alexandra Zaïnal
Concept & Development : Baudouin d'Aumeries
Co-Development & Prog : Marc-Olivier Méhu
Technical & hardware support : Manuel Goepfert

Contact : metmap@orbifly.com




SOURCES & CREDITS :

   NOAA       Earth
Advisory